createdAt,value
2023-05-04T00:00:55.096Z,16.10
2023-05-04T00:03:43.917Z,16.10
2023-05-04T00:06:33.191Z,16.20
2023-05-04T00:09:23.704Z,16.20
2023-05-04T00:12:15.202Z,16.00
2023-05-04T00:15:06.064Z,16.00
2023-05-04T00:17:55.097Z,15.70
2023-05-04T00:20:44.050Z,15.60
2023-05-04T00:23:36.206Z,15.00
2023-05-04T00:26:24.865Z,14.40
2023-05-04T00:29:14.888Z,14.70
2023-05-04T00:32:03.813Z,14.60
2023-05-04T00:34:53.317Z,14.40
2023-05-04T00:37:43.804Z,14.20
2023-05-04T00:40:32.707Z,13.60
2023-05-04T00:43:21.435Z,13.00
2023-05-04T00:46:12.160Z,12.90
2023-05-04T00:49:02.287Z,12.80
2023-05-04T00:51:53.721Z,13.10
2023-05-04T00:54:44.427Z,13.30
2023-05-04T00:57:33.114Z,13.20
2023-05-04T01:00:22.438Z,13.00
2023-05-04T01:03:13.534Z,13.10
2023-05-04T01:06:10.699Z,12.50
2023-05-04T01:09:04.121Z,12.50
2023-05-04T01:11:59.651Z,12.40
2023-05-04T01:14:50.046Z,12.40
2023-05-04T01:17:39.404Z,12.40
2023-05-04T01:20:29.632Z,12.80
2023-05-04T01:23:19.645Z,12.90
2023-05-04T01:26:14.741Z,13.00
2023-05-04T01:29:12.537Z,13.10
2023-05-04T01:32:04.106Z,13.50
2023-05-04T01:34:53.042Z,13.80
2023-05-04T01:37:42.252Z,13.90
2023-05-04T01:40:32.462Z,13.20
2023-05-04T01:43:21.224Z,13.30
2023-05-04T01:46:10.019Z,13.50
2023-05-04T01:49:00.182Z,13.70
2023-05-04T01:51:49.586Z,14.00
2023-05-04T01:54:38.747Z,14.10
2023-05-04T01:57:29.268Z,14.20
2023-05-04T02:00:18.995Z,14.20
2023-05-04T02:03:10.718Z,14.30
2023-05-04T02:06:00.464Z,14.30
2023-05-04T02:08:49.110Z,14.30
2023-05-04T02:11:38.154Z,14.10
2023-05-04T02:14:28.376Z,14.10
2023-05-04T02:17:21.172Z,14.10
2023-05-04T02:20:20.072Z,14.30
2023-05-04T02:23:11.826Z,14.30
2023-05-04T02:26:11.189Z,14.20
2023-05-04T02:29:09.844Z,14.00
2023-05-04T02:32:09.907Z,13.90
2023-05-04T02:35:01.830Z,13.90
2023-05-04T02:37:51.783Z,14.00
2023-05-04T02:40:42.154Z,14.00
2023-05-04T02:43:31.548Z,13.80
2023-05-04T02:46:24.665Z,13.90
2023-05-04T02:49:15.206Z,13.90
2023-05-04T02:52:04.073Z,13.90
2023-05-04T02:54:53.218Z,14.00
2023-05-04T02:57:42.160Z,13.80
2023-05-04T03:00:31.397Z,13.90
2023-05-04T03:03:20.282Z,14.10
2023-05-04T03:06:10.416Z,13.90
2023-05-04T03:08:59.523Z,13.80
2023-05-04T03:11:48.210Z,13.80
2023-05-04T03:14:36.882Z,13.40
2023-05-04T03:17:25.857Z,13.30
2023-05-04T03:20:15.218Z,13.50
2023-05-04T03:23:06.074Z,13.60
2023-05-04T03:25:55.177Z,13.50
2023-05-04T03:28:44.078Z,13.60
2023-05-04T03:31:32.854Z,13.40
2023-05-04T03:34:22.721Z,13.40
2023-05-04T03:37:17.781Z,13.10
2023-05-04T03:40:09.749Z,12.60
2023-05-04T03:42:58.370Z,12.60
2023-05-04T03:45:47.252Z,12.60
2023-05-04T03:48:36.094Z,12.40
2023-05-04T03:51:27.394Z,12.40
2023-05-04T03:54:16.087Z,12.30
2023-05-04T03:57:06.594Z,12.30
2023-05-04T03:59:57.941Z,12.20
2023-05-04T04:02:47.631Z,12.10
2023-05-04T04:05:40.640Z,12.10
2023-05-04T04:08:29.552Z,12.00
2023-05-04T04:11:18.502Z,12.20
2023-05-04T04:14:08.782Z,12.30
2023-05-04T04:16:57.931Z,12.30
2023-05-04T04:19:47.026Z,12.10
2023-05-04T04:22:37.972Z,12.40
2023-05-04T04:25:26.752Z,12.30
2023-05-04T04:28:16.876Z,12.00
2023-05-04T04:31:09.358Z,12.00
2023-05-04T04:33:58.232Z,12.20
2023-05-04T04:36:47.038Z,12.20
2023-05-04T04:39:35.789Z,12.40
2023-05-04T04:42:25.167Z,12.50
2023-05-04T04:45:15.553Z,12.40
2023-05-04T04:48:05.934Z,12.20
2023-05-04T04:50:54.840Z,11.90
2023-05-04T04:53:44.004Z,11.90
2023-05-04T04:56:32.724Z,12.30
2023-05-04T04:59:25.109Z,12.40
2023-05-04T05:02:13.796Z,12.20
2023-05-04T05:05:04.490Z,12.10
2023-05-04T05:07:53.749Z,11.80
2023-05-04T05:10:43.937Z,11.80
2023-05-04T05:13:33.267Z,11.80
2023-05-04T05:16:22.160Z,12.10
2023-05-04T05:19:10.821Z,12.00
2023-05-04T05:22:01.235Z,12.20
2023-05-04T05:24:51.746Z,12.10
2023-05-04T05:27:40.368Z,12.20
2023-05-04T05:30:29.201Z,12.50
2023-05-04T05:33:18.611Z,12.70
2023-05-04T05:36:07.957Z,12.80
2023-05-04T05:38:58.038Z,12.60
2023-05-04T05:41:47.792Z,12.70
2023-05-04T05:44:37.798Z,12.90
2023-05-04T05:47:26.541Z,12.80
2023-05-04T05:50:15.917Z,13.00
2023-05-04T05:53:09.042Z,13.00
2023-05-04T05:56:00.357Z,12.70
2023-05-04T05:58:49.463Z,12.70
2023-05-04T06:01:38.839Z,12.80
2023-05-04T06:04:27.582Z,12.70
2023-05-04T06:07:16.437Z,12.80
2023-05-04T06:10:08.836Z,12.80
2023-05-04T06:12:59.187Z,12.90
2023-05-04T06:15:53.209Z,13.00
2023-05-04T06:18:42.199Z,13.10
2023-05-04T06:21:30.872Z,13.10
2023-05-04T06:24:21.457Z,13.00
2023-05-04T06:27:10.229Z,13.10
2023-05-04T06:30:01.088Z,13.10
2023-05-04T06:32:49.854Z,13.20
2023-05-04T06:35:39.203Z,13.40
2023-05-04T06:38:27.938Z,13.50
2023-05-04T06:41:16.682Z,13.70
2023-05-04T06:44:06.330Z,13.60
2023-05-04T06:46:56.738Z,13.70
2023-05-04T06:49:45.439Z,13.90
2023-05-04T06:52:34.186Z,14.30
2023-05-04T06:55:23.406Z,14.60
2023-05-04T06:58:12.577Z,14.90
2023-05-04T07:01:01.553Z,15.10
2023-05-04T07:03:51.806Z,15.30
2023-05-04T07:06:43.738Z,15.50
2023-05-04T07:09:32.421Z,15.70
2023-05-04T07:12:21.403Z,15.70
2023-05-04T07:15:11.355Z,15.80
2023-05-04T07:18:00.007Z,15.90
2023-05-04T07:20:52.929Z,16.10
2023-05-04T07:23:42.950Z,16.20
2023-05-04T07:26:31.677Z,16.40
2023-05-04T07:29:20.299Z,16.60
2023-05-04T07:32:08.943Z,16.70
2023-05-04T07:34:57.826Z,17.00
2023-05-04T07:37:47.854Z,17.20
2023-05-04T07:40:36.819Z,17.10
2023-05-04T07:43:25.928Z,17.10
2023-05-04T07:46:14.731Z,17.10
2023-05-04T07:49:03.703Z,17.10
2023-05-04T07:51:54.465Z,17.50
2023-05-04T07:54:44.581Z,17.70
2023-05-04T07:57:39.221Z,17.90
2023-05-04T08:00:28.224Z,17.90
2023-05-04T08:03:17.206Z,18.00
2023-05-04T08:06:06.089Z,18.10
2023-05-04T08:08:54.758Z,18.30
2023-05-04T08:11:45.588Z,18.50
2023-05-04T08:14:36.791Z,18.50
2023-05-04T08:17:28.175Z,18.60
2023-05-04T08:20:17.085Z,18.70
2023-05-04T08:23:05.765Z,18.70
2023-05-04T08:25:56.241Z,19.00
2023-05-04T08:28:47.816Z,18.90
2023-05-04T08:31:36.983Z,19.10
2023-05-04T08:34:26.081Z,18.90
2023-05-04T08:37:14.777Z,19.10
2023-05-04T08:40:04.938Z,19.40
2023-05-04T08:42:53.948Z,19.30
2023-05-04T08:45:44.637Z,19.60
2023-05-04T08:48:35.107Z,19.70
2023-05-04T08:51:24.817Z,20.00
2023-05-04T08:54:13.814Z,20.10
2023-05-04T08:57:06.117Z,20.20
2023-05-04T08:59:56.203Z,20.00
2023-05-04T09:02:47.027Z,20.30
2023-05-04T09:05:36.880Z,20.30
2023-05-04T09:08:28.036Z,20.30
2023-05-04T09:11:18.096Z,20.20
2023-05-04T09:14:07.370Z,20.30
2023-05-04T09:16:56.942Z,20.10
2023-05-04T09:19:46.996Z,20.40
2023-05-04T09:22:35.693Z,20.50
2023-05-04T09:25:25.220Z,20.80
2023-05-04T09:28:14.114Z,20.90
2023-05-04T09:31:04.276Z,20.90
2023-05-04T09:33:53.910Z,21.00
2023-05-04T09:36:44.021Z,21.10
2023-05-04T09:39:32.669Z,21.20
2023-05-04T09:42:23.538Z,21.50
2023-05-04T09:45:13.697Z,21.30
2023-05-04T09:48:02.489Z,21.50
2023-05-04T09:50:53.958Z,21.30
2023-05-04T09:53:44.837Z,21.30
2023-05-04T09:56:43.278Z,21.50
2023-05-04T09:59:33.664Z,21.30
2023-05-04T10:02:23.541Z,21.50
2023-05-04T10:05:18.156Z,21.70
2023-05-04T10:08:07.828Z,21.70
2023-05-04T10:10:58.867Z,21.90
2023-05-04T10:13:48.322Z,22.00
2023-05-04T10:16:45.327Z,22.10
2023-05-04T10:20:00.403Z,22.00
2023-05-04T10:23:15.555Z,22.20
2023-05-04T10:26:43.917Z,22.40
2023-05-04T10:29:34.849Z,22.50
2023-05-04T10:32:24.398Z,22.20
2023-05-04T10:35:14.546Z,22.40
2023-05-04T10:38:05.328Z,22.30
2023-05-04T10:40:54.098Z,22.50
2023-05-04T10:43:43.103Z,22.70
2023-05-04T10:46:33.235Z,22.70
2023-05-04T10:49:21.941Z,23.00
2023-05-04T10:52:12.888Z,23.00
2023-05-04T10:55:02.823Z,22.80
2023-05-04T10:57:52.699Z,23.10
2023-05-04T11:00:42.534Z,23.10
2023-05-04T11:03:42.049Z,23.30
2023-05-04T11:06:32.033Z,23.60
2023-05-04T11:09:22.070Z,23.40
2023-05-04T11:12:11.654Z,23.30
2023-05-04T11:15:08.550Z,23.20
2023-05-04T11:17:58.518Z,23.40
2023-05-04T11:20:49.126Z,23.60
2023-05-04T11:23:40.120Z,23.90
2023-05-04T11:26:29.192Z,23.80
2023-05-04T11:29:21.783Z,23.80
2023-05-04T11:32:12.020Z,23.90
2023-05-04T11:35:01.731Z,23.90
2023-05-04T11:37:52.181Z,23.80
2023-05-04T11:40:48.779Z,23.90
2023-05-04T11:43:39.127Z,24.10
2023-05-04T11:46:29.141Z,24.00
2023-05-04T11:49:19.187Z,24.10
2023-05-04T11:52:13.868Z,24.10
2023-05-04T11:55:04.415Z,24.20
2023-05-04T11:57:58.129Z,24.00
2023-05-04T12:00:49.717Z,23.90
2023-05-04T12:03:53.047Z,24.10
2023-05-04T12:06:42.866Z,24.10
2023-05-04T12:09:31.641Z,24.40
2023-05-04T12:12:21.676Z,24.60
2023-05-04T12:15:12.110Z,24.70
2023-05-04T12:18:02.960Z,24.90
2023-05-04T12:20:52.591Z,25.10
2023-05-04T12:23:41.805Z,25.10
2023-05-04T12:26:31.997Z,25.10
2023-05-04T12:29:22.560Z,25.10
2023-05-04T12:32:12.922Z,25.10
2023-05-04T12:35:01.652Z,25.00
2023-05-04T12:37:50.902Z,25.10
2023-05-04T12:40:40.099Z,25.20
2023-05-04T12:43:29.095Z,25.30
2023-05-04T12:46:21.609Z,25.40
2023-05-04T12:49:11.585Z,25.60
2023-05-04T12:52:00.570Z,25.50
2023-05-04T12:54:49.856Z,25.50
2023-05-04T12:57:41.431Z,25.50
2023-05-04T13:00:31.310Z,25.50
2023-05-04T13:03:21.889Z,25.60
2023-05-04T13:06:11.120Z,25.60
2023-05-04T13:09:01.788Z,25.70
2023-05-04T13:11:52.902Z,25.70
2023-05-04T13:14:42.624Z,25.70
2023-05-04T13:17:33.921Z,25.60
2023-05-04T13:20:25.206Z,25.80
2023-05-04T13:23:14.056Z,25.80
2023-05-04T13:26:03.339Z,25.80
2023-05-04T13:28:54.025Z,26.00
2023-05-04T13:31:44.818Z,26.00
2023-05-04T13:34:34.721Z,26.00
2023-05-04T13:37:24.845Z,26.10
2023-05-04T13:40:17.402Z,26.30
2023-05-04T13:43:06.713Z,26.30
2023-05-04T13:45:57.033Z,26.30
2023-05-04T13:48:46.180Z,26.30
2023-05-04T13:51:35.940Z,26.40
2023-05-04T13:54:26.400Z,26.60
2023-05-04T13:57:17.012Z,26.60
2023-05-04T14:00:08.610Z,26.20
2023-05-04T14:03:00.798Z,26.20
2023-05-04T14:05:49.795Z,26.20
2023-05-04T14:08:39.078Z,26.30
2023-05-04T14:11:29.147Z,26.30
2023-05-04T14:14:18.579Z,26.20
2023-05-04T14:17:08.017Z,26.20
2023-05-04T14:19:58.908Z,26.10
2023-05-04T14:22:47.716Z,26.10
2023-05-04T14:25:37.897Z,26.20
2023-05-04T14:28:27.969Z,26.30
2023-05-04T14:31:16.780Z,26.30
2023-05-04T14:34:07.212Z,26.30
2023-05-04T14:36:55.881Z,26.30
2023-05-04T14:39:44.605Z,26.20
2023-05-04T14:42:33.563Z,26.30
2023-05-04T14:45:23.707Z,26.60
2023-05-04T14:48:12.444Z,26.50
2023-05-04T14:51:01.176Z,26.30
2023-05-04T14:53:50.863Z,26.10
2023-05-04T14:56:39.696Z,26.10
2023-05-04T14:59:28.483Z,26.30
2023-05-04T15:02:19.410Z,26.20
2023-05-04T15:05:10.334Z,26.00
2023-05-04T15:07:59.507Z,26.20
2023-05-04T15:10:48.267Z,26.10
2023-05-04T15:13:36.933Z,26.00
2023-05-04T15:16:30.025Z,25.90
2023-05-04T15:19:21.246Z,25.80
2023-05-04T15:22:09.959Z,25.70
2023-05-04T15:24:58.667Z,25.80
2023-05-04T15:27:47.627Z,25.80
2023-05-04T15:30:38.864Z,25.90
2023-05-04T15:33:27.762Z,25.90
2023-05-04T15:36:19.667Z,25.80
2023-05-04T15:39:10.082Z,25.70
2023-05-04T15:41:58.869Z,25.80
2023-05-04T15:44:47.584Z,25.70
2023-05-04T15:47:38.551Z,25.70
2023-05-04T15:50:27.446Z,25.60
2023-05-04T15:53:17.681Z,25.70
2023-05-04T15:56:06.790Z,25.80
2023-05-04T15:58:55.937Z,25.70
2023-05-04T16:01:44.683Z,25.70
2023-05-04T16:04:35.557Z,25.70
2023-05-04T16:07:24.557Z,25.80
2023-05-04T16:10:14.564Z,25.70
2023-05-04T16:13:04.346Z,25.70
2023-05-04T16:15:53.402Z,25.70
2023-05-04T16:18:42.103Z,25.70
2023-05-04T16:21:30.817Z,25.70
2023-05-04T16:24:19.554Z,25.60
2023-05-04T16:27:10.054Z,25.60
2023-05-04T16:30:00.735Z,25.60
2023-05-04T16:32:49.574Z,25.60
2023-05-04T16:35:38.874Z,25.40
2023-05-04T16:38:27.648Z,25.40
2023-05-04T16:41:16.937Z,25.30
2023-05-04T16:44:07.235Z,25.10
2023-05-04T16:46:56.032Z,25.10
2023-05-04T16:49:45.411Z,25.20
2023-05-04T16:52:34.190Z,25.10
2023-05-04T16:55:26.571Z,25.00
2023-05-04T16:58:16.431Z,25.00
2023-05-04T17:01:07.305Z,25.10
2023-05-04T17:03:57.294Z,25.00
2023-05-04T17:06:46.096Z,25.10
2023-05-04T17:09:34.955Z,24.90
2023-05-04T17:12:24.295Z,25.00
2023-05-04T17:15:15.488Z,24.90
2023-05-04T17:18:05.852Z,24.90
2023-05-04T17:20:54.524Z,24.90
2023-05-04T17:23:43.317Z,24.80
2023-05-04T17:26:32.370Z,24.80
2023-05-04T17:29:21.038Z,25.00
2023-05-04T17:32:09.826Z,25.10
2023-05-04T17:35:05.716Z,25.10
2023-05-04T17:38:01.970Z,25.10
2023-05-04T17:40:51.149Z,24.90
2023-05-04T17:43:40.405Z,24.90
2023-05-04T17:46:30.308Z,24.90
2023-05-04T17:49:19.647Z,24.70
2023-05-04T17:52:11.396Z,24.60
2023-05-04T17:55:01.341Z,24.80
2023-05-04T17:57:52.018Z,24.90
2023-05-04T18:00:40.953Z,24.90
2023-05-04T18:03:29.789Z,25.10
2023-05-04T18:06:20.546Z,25.00
2023-05-04T18:09:10.813Z,25.00
2023-05-04T18:11:59.861Z,25.10
2023-05-04T18:14:48.563Z,25.30
2023-05-04T18:17:38.901Z,25.30
2023-05-04T18:20:28.518Z,25.20
2023-05-04T18:23:17.208Z,24.80
2023-05-04T18:26:07.474Z,24.60
2023-05-04T18:29:04.246Z,23.90
2023-05-04T18:31:58.924Z,23.70
2023-05-04T18:34:51.594Z,23.80
2023-05-04T18:37:40.359Z,24.30
2023-05-04T18:40:29.166Z,24.70
2023-05-04T18:43:19.173Z,23.60
2023-05-04T18:46:09.363Z,23.10
2023-05-04T18:48:58.457Z,23.20
2023-05-04T18:51:48.240Z,23.10
2023-05-04T18:54:37.083Z,23.40
2023-05-04T18:57:26.460Z,23.40
2023-05-04T19:00:18.031Z,22.60
2023-05-04T19:03:06.802Z,22.60
2023-05-04T19:05:56.168Z,22.80
2023-05-04T19:08:44.828Z,22.20
2023-05-04T19:11:33.718Z,21.70
2023-05-04T19:14:22.752Z,21.10
2023-05-04T19:17:15.316Z,21.30
2023-05-04T19:20:04.302Z,21.70
2023-05-04T19:22:53.119Z,22.00
2023-05-04T19:25:43.193Z,22.20
2023-05-04T19:28:31.901Z,22.40
2023-05-04T19:31:21.171Z,21.70
2023-05-04T19:34:12.570Z,21.00
2023-05-04T19:37:01.496Z,21.30
2023-05-04T19:39:51.638Z,21.50
2023-05-04T19:42:46.164Z,20.80
2023-05-04T19:45:35.882Z,20.90
2023-05-04T19:48:25.031Z,20.60
2023-05-04T19:51:15.699Z,20.20
2023-05-04T19:54:04.453Z,20.40
2023-05-04T19:56:54.058Z,20.50
2023-05-04T19:59:44.850Z,20.00
2023-05-04T20:02:36.906Z,19.70
2023-05-04T20:05:25.799Z,19.90
2023-05-04T20:08:16.319Z,19.90
2023-05-04T20:11:05.113Z,19.90
2023-05-04T20:13:56.756Z,19.80
2023-05-04T20:16:46.669Z,19.80
2023-05-04T20:19:36.119Z,20.00
2023-05-04T20:22:25.409Z,20.10
2023-05-04T20:25:15.773Z,20.30
2023-05-04T20:28:04.796Z,19.80
2023-05-04T20:30:53.583Z,19.80
2023-05-04T20:33:42.351Z,19.60
2023-05-04T20:36:31.066Z,19.50
2023-05-04T20:39:21.623Z,19.80
2023-05-04T20:42:12.579Z,19.80
2023-05-04T20:45:01.209Z,19.70
2023-05-04T20:47:51.165Z,19.60
2023-05-04T20:50:40.812Z,19.80
2023-05-04T20:53:36.308Z,19.70
2023-05-04T20:56:25.100Z,19.70
2023-05-04T20:59:15.140Z,19.30
2023-05-04T21:02:03.711Z,19.40
2023-05-04T21:04:52.470Z,19.30
2023-05-04T21:07:41.471Z,19.40
2023-05-04T21:10:30.260Z,19.60
2023-05-04T21:13:19.240Z,19.90
2023-05-04T21:16:10.293Z,20.00
2023-05-04T21:18:59.165Z,20.20
2023-05-04T21:21:48.112Z,20.60
2023-05-04T21:24:37.038Z,20.30
2023-05-04T21:27:26.244Z,20.40
2023-05-04T21:30:17.225Z,20.40
2023-05-04T21:33:07.374Z,20.30
2023-05-04T21:35:56.088Z,20.10
2023-05-04T21:38:45.265Z,19.70
2023-05-04T21:41:33.971Z,19.40
2023-05-04T21:44:23.410Z,18.90
2023-05-04T21:47:13.175Z,18.70
2023-05-04T21:50:05.002Z,18.60
2023-05-04T21:52:54.048Z,18.40
2023-05-04T21:55:42.848Z,18.30
2023-05-04T21:58:32.162Z,18.30
2023-05-04T22:01:21.428Z,18.60
2023-05-04T22:04:10.387Z,18.80
2023-05-04T22:07:00.493Z,19.00
2023-05-04T22:09:49.872Z,18.90
2023-05-04T22:12:40.182Z,19.00
2023-05-04T22:15:38.404Z,19.10
2023-05-04T22:18:35.402Z,19.30
2023-05-04T22:21:24.343Z,19.40
2023-05-04T22:24:14.631Z,18.80
2023-05-04T22:27:03.484Z,18.00
2023-05-04T22:29:54.837Z,17.90
2023-05-04T22:32:43.679Z,17.60
2023-05-04T22:35:32.552Z,17.50
2023-05-04T22:38:21.217Z,17.40
2023-05-04T22:41:11.487Z,17.40
2023-05-04T22:44:00.103Z,17.20
2023-05-04T22:46:49.932Z,17.30
2023-05-04T22:49:38.722Z,17.30
2023-05-04T22:52:27.388Z,17.30
2023-05-04T22:55:17.324Z,17.20
2023-05-04T22:58:08.034Z,17.40
2023-05-04T23:00:56.858Z,17.10
2023-05-04T23:03:45.867Z,17.10
2023-05-04T23:06:34.946Z,17.20
2023-05-04T23:09:23.611Z,17.30
2023-05-04T23:12:12.929Z,17.40
2023-05-04T23:15:03.627Z,17.50
2023-05-04T23:17:52.360Z,17.50
2023-05-04T23:20:41.089Z,17.50
2023-05-04T23:23:30.160Z,17.20
2023-05-04T23:26:18.993Z,16.90
2023-05-04T23:29:08.906Z,16.80
2023-05-04T23:31:58.955Z,16.70
2023-05-04T23:34:48.021Z,16.60
2023-05-04T23:37:36.816Z,16.60
2023-05-04T23:40:26.127Z,16.60
2023-05-04T23:43:14.717Z,16.70
2023-05-04T23:46:04.891Z,16.80
2023-05-04T23:48:56.141Z,16.90
2023-05-04T23:51:45.709Z,16.90
2023-05-04T23:54:34.867Z,17.00
2023-05-04T23:57:23.539Z,16.70
